createdAt,value
2019-03-03T00:01:07.392Z,11.83
2019-03-03T00:06:14.747Z,11.33
2019-03-03T00:11:21.004Z,12.50
2019-03-03T00:16:29.718Z,11.17
2019-03-03T00:21:36.516Z,14.33
2019-03-03T00:26:42.814Z,10.53
2019-03-03T00:31:49.870Z,9.80
2019-03-03T00:37:24.969Z,10.07
2019-03-03T00:42:44.973Z,12.37
2019-03-03T00:48:09.153Z,8.37
2019-03-03T00:53:24.627Z,11.37
2019-03-03T00:58:41.307Z,10.57
2019-03-03T01:04:06.964Z,9.00
2019-03-03T01:09:45.250Z,6.40
2019-03-03T01:15:03.289Z,7.97
2019-03-03T01:20:31.029Z,11.10
2019-03-03T01:25:36.942Z,10.57
2019-03-03T01:30:44.069Z,9.97
2019-03-03T01:35:51.341Z,6.10
2019-03-03T01:40:58.165Z,7.63
2019-03-03T01:46:05.585Z,5.50
2019-03-03T01:51:11.083Z,9.23
2019-03-03T01:56:17.337Z,9.60
2019-03-03T02:01:26.029Z,7.43
2019-03-03T02:06:32.031Z,6.97
2019-03-03T02:11:38.482Z,6.80
2019-03-03T02:16:44.797Z,7.17
2019-03-03T02:21:52.596Z,9.60
2019-03-03T02:26:59.642Z,8.00
2019-03-03T02:32:07.052Z,6.43
2019-03-03T02:37:14.325Z,8.17
2019-03-03T02:42:21.334Z,9.37
2019-03-03T02:47:28.640Z,8.43
2019-03-03T02:52:36.042Z,5.97
2019-03-03T02:57:42.516Z,6.73
2019-03-03T03:02:49.910Z,9.33
2019-03-03T03:08:11.167Z,9.47
2019-03-03T03:13:31.622Z,8.63
2019-03-03T03:18:50.139Z,8.03
2019-03-03T03:24:13.824Z,11.53
2019-03-03T03:29:40.530Z,10.23
2019-03-03T03:34:55.151Z,10.47
2019-03-03T03:40:18.536Z,9.43
2019-03-03T03:45:45.198Z,11.67
2019-03-03T03:51:10.306Z,8.20
2019-03-03T03:56:42.567Z,8.33
2019-03-03T04:02:02.835Z,10.40
2019-03-03T04:07:32.740Z,10.23
2019-03-03T04:12:56.194Z,7.53
2019-03-03T04:18:10.402Z,12.30
2019-03-03T04:23:34.375Z,8.33
2019-03-03T04:28:50.210Z,10.07
2019-03-03T04:34:02.919Z,10.27
2019-03-03T04:39:31.207Z,8.37
2019-03-03T04:45:02.530Z,10.37
2019-03-03T04:50:19.481Z,12.77
2019-03-03T04:55:43.822Z,10.67
2019-03-03T05:01:26.559Z,12.70
2019-03-03T05:06:53.966Z,9.13
2019-03-03T05:12:38.255Z,13.93
2019-03-03T05:17:53.081Z,11.13
2019-03-03T05:23:00.032Z,10.20
2019-03-03T05:28:07.381Z,13.13
2019-03-03T05:33:14.075Z,11.93
2019-03-03T05:38:19.756Z,10.90
2019-03-03T05:43:26.517Z,12.03
2019-03-03T05:48:33.090Z,9.70
2019-03-03T05:53:38.037Z,11.57
2019-03-03T05:58:43.141Z,13.17
2019-03-03T06:03:49.578Z,13.20
2019-03-03T06:08:56.581Z,11.53
2019-03-03T06:14:03.166Z,9.77
2019-03-03T06:19:09.507Z,11.50
2019-03-03T06:24:17.048Z,14.63
2019-03-03T06:29:24.734Z,13.07
2019-03-03T06:34:29.943Z,8.37
2019-03-03T06:39:35.767Z,13.43
2019-03-03T06:44:41.738Z,9.33
2019-03-03T06:49:47.172Z,13.67
2019-03-03T06:54:54.654Z,10.43
2019-03-03T07:00:01.883Z,11.00
2019-03-03T07:05:09.327Z,11.37
2019-03-03T07:10:16.817Z,16.53
2019-03-03T07:15:23.843Z,12.57
2019-03-03T07:20:30.396Z,11.30
2019-03-03T07:25:36.673Z,12.03
2019-03-03T07:30:43.484Z,13.90
2019-03-03T07:35:49.651Z,13.63
2019-03-03T07:40:55.053Z,11.53
2019-03-03T07:46:02.047Z,11.93
2019-03-03T07:51:07.492Z,12.43
2019-03-03T07:56:12.942Z,9.93
2019-03-03T08:01:26.412Z,12.43
2019-03-03T08:06:32.140Z,13.40
2019-03-03T08:11:58.415Z,12.47
2019-03-03T08:17:04.498Z,12.07
2019-03-03T08:22:31.044Z,16.37
2019-03-03T08:27:38.757Z,14.57
2019-03-03T08:32:44.998Z,13.93
2019-03-03T08:37:51.064Z,13.13
2019-03-03T08:43:04.253Z,15.10
2019-03-03T08:48:17.829Z,12.80
2019-03-03T08:53:42.980Z,13.33
2019-03-03T08:59:22.829Z,11.70
2019-03-03T09:04:54.855Z,11.60
2019-03-03T09:10:07.656Z,12.80
2019-03-03T09:15:29.283Z,12.17
2019-03-03T09:21:09.710Z,12.13
2019-03-03T09:26:45.886Z,13.73
2019-03-03T09:32:17.410Z,12.17
2019-03-03T09:37:51.409Z,9.93
2019-03-03T09:43:13.518Z,10.67
2019-03-03T09:48:54.876Z,7.63
2019-03-03T09:54:10.836Z,5.93
2019-03-03T09:59:34.905Z,5.70
2019-03-03T10:04:59.265Z,4.97
2019-03-03T10:10:14.990Z,7.10
2019-03-03T10:15:33.771Z,5.10
2019-03-03T10:21:04.723Z,3.57
2019-03-03T10:26:36.961Z,4.47
2019-03-03T10:32:01.704Z,4.83
2019-03-03T10:37:25.538Z,5.80
2019-03-03T10:42:57.423Z,4.70
2019-03-03T10:54:29.267Z,3.37
2019-03-03T10:59:55.258Z,3.43
2019-03-03T11:05:26.552Z,5.10
2019-03-03T11:10:57.301Z,3.47
2019-03-03T11:16:15.381Z,3.40
2019-03-03T11:22:01.913Z,5.93
2019-03-03T11:33:12.693Z,5.20
2019-03-03T11:38:47.117Z,6.30
2019-03-03T11:44:02.518Z,4.47
2019-03-03T11:49:21.125Z,2.37
2019-03-03T11:54:32.813Z,3.20
2019-03-03T11:59:59.952Z,3.10
2019-03-03T12:11:40.163Z,2.63
2019-03-03T12:17:13.854Z,4.90
2019-03-03T12:23:02.302Z,3.47
2019-03-03T12:34:04.680Z,5.63
2019-03-03T12:39:22.500Z,2.90
2019-03-03T12:45:08.412Z,3.90
2019-03-03T12:50:44.045Z,4.50
2019-03-03T12:55:58.583Z,3.03
2019-03-03T13:01:29.923Z,4.27
2019-03-03T13:06:52.368Z,4.47
2019-03-03T13:12:26.974Z,5.43
2019-03-03T13:17:58.446Z,5.67
2019-03-03T13:23:34.142Z,4.47
2019-03-03T13:29:03.026Z,4.57
2019-03-03T13:34:33.601Z,4.13
2019-03-03T13:39:57.744Z,4.43
2019-03-03T13:45:04.389Z,4.87
2019-03-03T13:50:12.211Z,5.43
2019-03-03T13:55:17.496Z,6.47
2019-03-03T14:00:25.361Z,6.87
2019-03-03T14:05:32.263Z,5.13
2019-03-03T14:10:39.063Z,8.07
2019-03-03T14:15:45.118Z,4.67
2019-03-03T14:20:51.308Z,4.37
2019-03-03T14:25:57.606Z,7.57
2019-03-03T14:31:03.269Z,5.63
2019-03-03T14:36:10.623Z,6.03
2019-03-03T14:41:17.040Z,8.07
2019-03-03T14:46:23.770Z,8.97
2019-03-03T14:51:30.283Z,8.47
2019-03-03T14:56:36.641Z,7.67
2019-03-03T15:01:42.463Z,9.23
2019-03-03T15:06:49.366Z,9.50
2019-03-03T15:11:54.917Z,8.27
2019-03-03T15:17:01.532Z,9.93
2019-03-03T15:22:07.298Z,9.43
2019-03-03T15:27:13.722Z,10.27
2019-03-03T15:32:19.687Z,7.53
2019-03-03T15:37:26.413Z,7.90
2019-03-03T15:42:31.993Z,8.27
2019-03-03T15:47:38.566Z,10.67
2019-03-03T15:52:45.432Z,11.53
2019-03-03T15:57:56.524Z,9.67
2019-03-03T16:03:02.946Z,7.93
2019-03-03T16:08:09.224Z,8.07
2019-03-03T16:13:15.278Z,8.10
2019-03-03T16:18:23.817Z,9.63
2019-03-03T16:23:32.539Z,10.87
2019-03-03T16:28:38.822Z,8.43
2019-03-03T16:33:46.395Z,12.93
2019-03-03T16:38:54.514Z,9.70
2019-03-03T16:44:00.755Z,6.67
2019-03-03T16:49:06.418Z,10.93
2019-03-03T16:54:11.186Z,12.20
2019-03-03T16:59:19.000Z,10.87
2019-03-03T17:04:25.330Z,12.97
2019-03-03T17:09:33.380Z,9.20
2019-03-03T17:14:39.024Z,8.17
2019-03-03T17:20:08.360Z,9.07
2019-03-03T17:25:16.077Z,12.20
2019-03-03T17:30:22.978Z,13.13
2019-03-03T17:35:30.239Z,11.00
2019-03-03T17:40:37.187Z,9.47
2019-03-03T17:45:44.853Z,8.10
2019-03-03T17:50:52.093Z,8.90
2019-03-03T17:55:57.562Z,10.10
2019-03-03T18:01:05.023Z,10.53
2019-03-03T18:06:15.576Z,11.13
2019-03-03T18:11:22.689Z,10.07
2019-03-03T18:16:29.075Z,7.37
2019-03-03T18:21:36.402Z,9.50
2019-03-03T18:26:42.025Z,6.27
2019-03-03T18:31:48.433Z,7.80
2019-03-03T18:36:54.145Z,11.13
2019-03-03T18:42:00.204Z,8.17
2019-03-03T18:47:08.443Z,9.17
2019-03-03T18:52:15.225Z,8.87
2019-03-03T18:57:22.196Z,11.60
2019-03-03T19:02:29.072Z,10.80
2019-03-03T19:07:36.238Z,10.23
2019-03-03T19:12:42.637Z,10.43
2019-03-03T19:17:50.946Z,7.67
2019-03-03T19:22:56.861Z,9.13
2019-03-03T19:28:02.470Z,7.93
2019-03-03T19:33:36.099Z,9.03
2019-03-03T19:38:42.288Z,9.47
2019-03-03T19:43:48.354Z,8.40
2019-03-03T19:48:54.611Z,9.67
2019-03-03T19:53:59.654Z,11.40
2019-03-03T19:59:05.886Z,10.37
2019-03-03T20:04:11.092Z,7.97
2019-03-03T20:09:20.409Z,8.33
2019-03-03T20:14:26.371Z,8.97
2019-03-03T20:19:33.992Z,7.40
2019-03-03T20:24:39.723Z,8.43
2019-03-03T20:29:45.982Z,8.57
2019-03-03T20:34:52.559Z,7.67
2019-03-03T20:39:58.295Z,9.47
2019-03-03T20:45:06.463Z,8.33
2019-03-03T20:50:15.779Z,8.30
2019-03-03T20:55:22.437Z,6.33
2019-03-03T21:00:29.001Z,9.20
2019-03-03T21:05:36.942Z,8.20
2019-03-03T21:10:43.445Z,5.17
2019-03-03T21:15:51.391Z,7.47
2019-03-03T21:20:58.569Z,8.53
2019-03-03T21:26:05.171Z,6.23
2019-03-03T21:31:12.590Z,7.07
2019-03-03T21:36:20.334Z,6.17
2019-03-03T21:41:27.723Z,5.10
2019-03-03T21:46:40.856Z,7.03
2019-03-03T21:51:47.985Z,5.43
2019-03-03T21:56:57.126Z,6.37
2019-03-03T22:02:03.106Z,4.30
2019-03-03T22:07:08.567Z,4.70
2019-03-03T22:12:15.180Z,5.50
2019-03-03T22:17:20.851Z,4.30
2019-03-03T22:22:27.217Z,4.53
2019-03-03T22:27:33.557Z,4.37
2019-03-03T22:32:42.141Z,4.97
2019-03-03T22:37:48.559Z,4.47
2019-03-03T22:42:54.861Z,3.20
2019-03-03T22:48:00.878Z,5.47
2019-03-03T22:53:08.235Z,3.77
2019-03-03T22:58:15.513Z,3.87
2019-03-03T23:03:41.489Z,5.83
2019-03-03T23:09:06.585Z,4.27
2019-03-03T23:14:34.200Z,4.33
2019-03-03T23:20:22.750Z,5.63
2019-03-03T23:25:55.826Z,4.67
2019-03-03T23:31:02.737Z,5.80
2019-03-03T23:36:08.739Z,5.13
2019-03-03T23:41:15.809Z,5.33
2019-03-03T23:46:21.940Z,6.13
2019-03-03T23:51:27.729Z,3.13
2019-03-03T23:56:33.792Z,4.93
